createdAt,value
2018-07-15T00:02:25.786Z,3.80
2018-07-15T00:04:54.146Z,4.42
2018-07-15T00:07:22.528Z,5.03
2018-07-15T00:09:52.405Z,3.33
2018-07-15T00:12:20.646Z,3.45
2018-07-15T00:14:49.074Z,3.67
2018-07-15T00:17:17.478Z,3.70
2018-07-15T00:19:45.738Z,5.03
2018-07-15T00:22:13.982Z,4.65
2018-07-15T00:24:42.261Z,3.67
2018-07-15T00:27:10.586Z,4.12
2018-07-15T00:29:38.831Z,4.62
2018-07-15T00:32:07.403Z,4.37
2018-07-15T00:34:35.653Z,3.37
2018-07-15T00:37:04.109Z,4.95
2018-07-15T00:39:32.433Z,3.40
2018-07-15T00:42:00.698Z,3.17
2018-07-15T00:44:28.963Z,3.40
2018-07-15T00:46:57.574Z,3.00
2018-07-15T00:49:25.823Z,4.15
2018-07-15T00:51:54.131Z,3.70
2018-07-15T00:54:22.438Z,2.80
2018-07-15T00:56:50.942Z,3.95
2018-07-15T00:59:19.270Z,3.08
2018-07-15T01:01:47.544Z,2.70
2018-07-15T01:04:22.362Z,4.28
2018-07-15T01:06:50.782Z,3.87
2018-07-15T01:09:21.592Z,2.92
2018-07-15T01:11:49.930Z,3.22
2018-07-15T01:14:18.208Z,2.83
2018-07-15T01:16:46.442Z,2.98
2018-07-15T01:19:14.681Z,3.22
2018-07-15T01:21:43.086Z,3.20
2018-07-15T01:24:11.362Z,2.67
2018-07-15T01:26:39.671Z,3.10
2018-07-15T01:29:09.758Z,3.80
2018-07-15T01:31:38.022Z,3.10
2018-07-15T01:34:06.442Z,2.95
2018-07-15T01:36:34.807Z,2.80
2018-07-15T01:39:03.156Z,2.87
2018-07-15T01:41:31.402Z,3.00
2018-07-15T01:44:00.225Z,3.02
2018-07-15T01:46:28.498Z,3.87
2018-07-15T01:48:56.717Z,3.52
2018-07-15T01:51:25.665Z,2.62
2018-07-15T01:53:53.926Z,3.20
2018-07-15T01:56:22.179Z,2.83
2018-07-15T01:58:50.916Z,2.72
2018-07-15T02:01:19.154Z,3.58
2018-07-15T02:03:47.412Z,2.85
2018-07-15T02:06:16.162Z,2.50
2018-07-15T02:08:45.356Z,3.72
2018-07-15T02:11:13.606Z,2.85
2018-07-15T02:13:41.896Z,2.65
2018-07-15T02:16:10.157Z,2.98
2018-07-15T02:18:38.498Z,2.42
2018-07-15T02:21:06.949Z,2.60
2018-07-15T02:23:35.475Z,3.08
2018-07-15T02:26:03.852Z,2.62
2018-07-15T02:28:33.602Z,2.60
2018-07-15T02:31:01.858Z,3.15
2018-07-15T02:33:30.081Z,2.42
2018-07-15T02:35:58.346Z,2.40
2018-07-15T02:38:26.663Z,3.12
2018-07-15T02:40:55.126Z,2.40
2018-07-15T02:43:23.371Z,2.50
2018-07-15T02:45:51.658Z,2.72
2018-07-15T02:48:20.751Z,3.25
2018-07-15T02:50:48.980Z,2.92
2018-07-15T02:53:17.243Z,2.62
2018-07-15T02:55:45.989Z,2.47
2018-07-15T02:58:14.274Z,2.52
2018-07-15T03:00:42.527Z,2.55
2018-07-15T03:03:11.035Z,2.65
2018-07-15T03:05:39.303Z,2.83
2018-07-15T03:08:09.631Z,2.60
2018-07-15T03:10:38.410Z,2.30
2018-07-15T03:13:06.688Z,2.40
2018-07-15T03:15:34.939Z,2.87
2018-07-15T03:18:03.660Z,2.87
2018-07-15T03:20:31.926Z,2.30
2018-07-15T03:23:00.261Z,2.60
2018-07-15T03:25:29.128Z,2.70
2018-07-15T03:27:57.391Z,2.75
2018-07-15T03:30:25.691Z,2.27
2018-07-15T03:32:54.250Z,2.60
2018-07-15T03:35:22.703Z,2.30
2018-07-15T03:37:50.959Z,2.22
2018-07-15T03:40:19.527Z,2.47
2018-07-15T03:42:47.779Z,2.62
2018-07-15T03:45:16.101Z,2.35
2018-07-15T03:47:44.603Z,2.90
2018-07-15T03:50:12.846Z,2.35
2018-07-15T03:52:41.211Z,2.30
2018-07-15T03:55:09.860Z,2.62
2018-07-15T03:57:38.281Z,2.45
2018-07-15T04:00:06.594Z,2.40
2018-07-15T04:02:35.410Z,2.67
2018-07-15T04:05:03.714Z,2.40
2018-07-15T04:07:33.706Z,2.52
2018-07-15T04:10:01.968Z,2.25
2018-07-15T04:12:30.458Z,2.17
2018-07-15T04:14:58.779Z,2.40
2018-07-15T04:17:27.033Z,2.37
2018-07-15T04:19:55.358Z,2.40
2018-07-15T04:22:24.081Z,2.60
2018-07-15T04:24:52.562Z,2.35
2018-07-15T04:27:20.837Z,2.25
2018-07-15T04:29:49.146Z,2.30
2018-07-15T04:32:17.469Z,3.40
2018-07-15T04:34:45.715Z,2.40
2018-07-15T04:37:14.145Z,2.30
2018-07-15T04:39:42.406Z,2.60
2018-07-15T04:42:10.646Z,2.55
2018-07-15T04:44:39.111Z,2.58
2018-07-15T04:47:07.358Z,2.58
2018-07-15T04:49:35.637Z,2.50
2018-07-15T04:52:03.934Z,2.20
2018-07-15T04:54:32.163Z,2.58
2018-07-15T04:57:00.507Z,2.30
2018-07-15T04:59:28.642Z,2.42
2018-07-15T05:01:57.013Z,2.37
2018-07-15T05:04:24.925Z,3.65
2018-07-15T05:06:53.477Z,2.27
2018-07-15T05:09:21.751Z,2.35
2018-07-15T05:11:49.978Z,2.33
2018-07-15T05:14:19.445Z,2.62
2018-07-15T05:16:47.707Z,2.40
2018-07-15T05:19:16.087Z,2.37
2018-07-15T05:21:44.877Z,2.30
2018-07-15T05:24:14.795Z,2.22
2018-07-15T05:26:43.068Z,2.20
2018-07-15T05:29:11.419Z,2.52
2018-07-15T05:31:39.702Z,2.30
2018-07-15T05:34:08.022Z,2.30
2018-07-15T05:36:36.346Z,2.33
2018-07-15T05:39:05.586Z,2.47
2018-07-15T05:41:33.852Z,2.05
2018-07-15T05:44:02.122Z,2.25
2018-07-15T05:46:30.463Z,2.20
2018-07-15T05:48:58.966Z,2.40
2018-07-15T05:51:27.287Z,2.25
2018-07-15T05:53:55.539Z,2.25
2018-07-15T05:56:23.876Z,2.33
2018-07-15T05:58:52.511Z,2.30
2018-07-15T06:01:20.736Z,2.37
2018-07-15T06:03:49.000Z,2.05
2018-07-15T06:06:17.543Z,2.37
2018-07-15T06:08:47.349Z,2.35
2018-07-15T06:11:15.707Z,2.10
2018-07-15T06:13:44.015Z,2.33
2018-07-15T06:16:12.306Z,2.50
2018-07-15T06:18:40.592Z,2.50
2018-07-15T06:21:09.058Z,2.40
2018-07-15T06:23:37.463Z,2.50
2018-07-15T06:26:05.723Z,1.80
2018-07-15T06:28:34.292Z,2.30
2018-07-15T06:31:02.616Z,2.33
2018-07-15T06:33:30.829Z,2.33
2018-07-15T06:35:59.331Z,2.33
2018-07-15T06:38:27.665Z,2.17
2018-07-15T06:40:55.881Z,2.00
2018-07-15T06:43:24.360Z,4.33
2018-07-15T06:45:52.641Z,3.72
2018-07-15T06:48:20.921Z,5.03
2018-07-15T06:50:49.702Z,5.12
2018-07-15T06:53:18.067Z,5.33
2018-07-15T06:55:46.395Z,5.25
2018-07-15T06:58:14.843Z,6.85
2018-07-15T07:00:43.110Z,6.70
2018-07-15T07:03:11.394Z,5.15
2018-07-15T07:05:39.683Z,6.10
2018-07-15T07:08:09.998Z,9.28
2018-07-15T07:10:38.275Z,4.62
2018-07-15T07:13:06.995Z,9.68
2018-07-15T07:15:35.250Z,7.58
2018-07-15T07:18:03.554Z,8.03
2018-07-15T07:20:32.364Z,9.90
2018-07-15T07:23:00.570Z,10.20
2018-07-15T07:25:28.920Z,9.40
2018-07-15T07:27:57.631Z,8.78
2018-07-15T07:30:25.917Z,15.30
2018-07-15T07:32:54.356Z,14.38
2018-07-15T07:35:22.723Z,14.85
2018-07-15T07:37:51.067Z,12.70
2018-07-15T07:40:19.415Z,15.13
2018-07-15T07:42:48.137Z,20.80
2018-07-15T07:45:16.401Z,29.72
2018-07-15T07:47:44.640Z,27.98
2018-07-15T07:50:13.686Z,23.70
2018-07-15T07:52:41.983Z,16.10
2018-07-15T07:55:10.299Z,11.60
2018-07-15T07:57:38.815Z,14.75
2018-07-15T08:00:07.253Z,13.80
2018-07-15T08:02:35.511Z,15.80
2018-07-15T08:05:04.156Z,12.68
2018-07-15T08:07:33.464Z,17.15
2018-07-15T08:10:02.003Z,16.73
2018-07-15T08:12:30.375Z,10.13
2018-07-15T08:14:58.834Z,9.38
2018-07-15T08:17:27.494Z,13.53
2018-07-15T08:19:55.742Z,11.97
2018-07-15T08:22:24.166Z,10.58
2018-07-15T08:24:52.723Z,15.13
2018-07-15T08:27:21.075Z,14.93
2018-07-15T08:30:00.847Z,11.75
2018-07-15T08:32:29.230Z,20.00
2018-07-15T08:34:57.504Z,16.50
2018-07-15T08:37:25.942Z,11.45
2018-07-15T08:39:54.203Z,10.93
2018-07-15T08:42:22.491Z,13.35
2018-07-15T08:44:52.146Z,12.05
2018-07-15T08:47:20.430Z,11.08
2018-07-15T08:49:48.767Z,12.53
2018-07-15T08:52:17.528Z,13.20
2018-07-15T08:54:45.923Z,21.85
2018-07-15T08:57:14.146Z,12.98
2018-07-15T08:59:42.654Z,13.10
2018-07-15T09:02:10.996Z,9.55
2018-07-15T09:04:39.274Z,16.62
2018-07-15T09:07:10.412Z,10.80
2018-07-15T09:09:38.783Z,18.02
2018-07-15T09:12:07.335Z,12.20
2018-07-15T09:14:35.707Z,13.25
2018-07-15T09:17:04.151Z,10.63
2018-07-15T09:19:32.471Z,10.70
2018-07-15T09:22:01.157Z,18.10
2018-07-15T09:24:29.482Z,13.45
2018-07-15T09:26:57.819Z,11.43
2018-07-15T09:29:26.765Z,12.47
2018-07-15T09:31:55.047Z,12.90
2018-07-15T09:34:23.354Z,10.82
2018-07-15T09:36:52.123Z,12.50
2018-07-15T09:39:20.428Z,13.25
2018-07-15T09:41:48.730Z,10.15
2018-07-15T09:44:17.052Z,11.65
2018-07-15T09:46:45.390Z,14.00
2018-07-15T09:49:13.795Z,11.30
2018-07-15T09:51:43.539Z,11.43
2018-07-15T09:54:11.926Z,9.33
2018-07-15T09:56:40.380Z,11.38
2018-07-15T09:59:09.262Z,15.03
2018-07-15T10:01:37.587Z,11.75
2018-07-15T10:04:06.017Z,11.73
2018-07-15T10:06:34.357Z,9.23
2018-07-15T10:09:05.746Z,6.90
2018-07-15T10:11:34.050Z,9.20
2018-07-15T10:14:02.416Z,9.30
2018-07-15T10:16:30.740Z,9.30
2018-07-15T10:18:59.223Z,9.83
2018-07-15T10:21:27.649Z,7.50
2018-07-15T10:23:55.969Z,13.38
2018-07-15T10:26:25.117Z,8.85
2018-07-15T10:28:53.505Z,13.53
2018-07-15T10:31:21.828Z,14.58
2018-07-15T10:33:50.362Z,16.57
2018-07-15T10:36:18.791Z,13.83
2018-07-15T10:38:47.134Z,13.53
2018-07-15T10:41:15.567Z,13.40
2018-07-15T10:43:43.883Z,12.75
2018-07-15T10:46:12.154Z,14.78
2018-07-15T10:48:40.770Z,11.40
2018-07-15T10:51:09.216Z,15.58
2018-07-15T10:53:37.600Z,14.43
2018-07-15T10:56:05.968Z,15.03
2018-07-15T10:58:34.519Z,12.88
2018-07-15T11:01:02.992Z,55.33
2018-07-15T11:03:31.582Z,56.60
2018-07-15T11:05:59.899Z,74.97
2018-07-15T11:08:30.095Z,44.67
2018-07-15T11:10:58.364Z,34.38
2018-07-15T11:13:26.752Z,33.20
2018-07-15T11:15:55.355Z,25.68
2018-07-15T11:18:23.838Z,20.52
2018-07-15T11:20:52.238Z,21.50
2018-07-15T11:23:20.823Z,22.27
2018-07-15T11:25:49.169Z,22.35
2018-07-15T11:28:17.577Z,19.20
2018-07-15T11:30:47.140Z,20.70
2018-07-15T11:33:15.530Z,34.65
2018-07-15T11:35:43.830Z,27.35
2018-07-15T11:38:12.153Z,28.47
2018-07-15T11:40:40.154Z,25.45
2018-07-15T11:43:08.556Z,22.02
2018-07-15T11:45:37.073Z,20.57
2018-07-15T11:48:05.427Z,29.12
2018-07-15T11:50:33.831Z,26.52
2018-07-15T11:53:03.024Z,19.73
2018-07-15T11:55:31.400Z,20.55
2018-07-15T11:57:59.820Z,16.67
2018-07-15T12:00:28.459Z,12.33
2018-07-15T12:02:56.850Z,16.25
2018-07-15T12:05:25.115Z,14.23
2018-07-15T12:07:55.081Z,8.25
2018-07-15T12:10:23.379Z,7.83
2018-07-15T12:12:51.741Z,7.47
2018-07-15T12:15:20.165Z,6.17
2018-07-15T12:17:48.407Z,9.23
2018-07-15T12:20:16.775Z,7.60
2018-07-15T12:22:45.199Z,7.75
2018-07-15T12:25:13.551Z,9.23
2018-07-15T12:27:41.924Z,9.78
2018-07-15T12:30:10.691Z,17.50
2018-07-15T12:32:38.991Z,13.75
2018-07-15T12:35:07.416Z,15.78
2018-07-15T12:37:35.983Z,14.58
2018-07-15T12:40:04.331Z,15.18
2018-07-15T12:42:32.728Z,14.75
2018-07-15T12:45:01.211Z,13.98
2018-07-15T12:47:29.551Z,11.73
2018-07-15T12:49:57.946Z,17.05
2018-07-15T12:52:27.296Z,15.72
2018-07-15T12:54:55.596Z,14.95
2018-07-15T12:57:23.931Z,16.37
2018-07-15T12:59:52.653Z,13.90
2018-07-15T13:02:20.973Z,14.78
2018-07-15T13:04:49.303Z,18.20
2018-07-15T13:07:24.278Z,17.98
2018-07-15T13:09:52.593Z,17.20
2018-07-15T13:12:20.963Z,15.13
2018-07-15T13:14:49.590Z,19.55
2018-07-15T13:17:17.941Z,14.68
2018-07-15T13:19:46.264Z,15.90
2018-07-15T13:22:14.561Z,14.47
2018-07-15T13:24:42.891Z,13.98
2018-07-15T13:27:11.356Z,11.00
2018-07-15T13:29:40.809Z,12.40
2018-07-15T13:32:09.014Z,12.40
2018-07-15T13:34:37.296Z,16.17
2018-07-15T13:37:06.130Z,15.10
2018-07-15T13:39:34.584Z,14.18
2018-07-15T13:42:03.029Z,15.25
2018-07-15T13:44:31.543Z,16.45
2018-07-15T13:46:59.981Z,15.43
2018-07-15T13:49:28.399Z,14.65
2018-07-15T13:51:57.534Z,15.18
2018-07-15T13:54:25.991Z,15.68
2018-07-15T13:56:54.374Z,15.58
2018-07-15T13:59:23.052Z,18.40
2018-07-15T14:01:51.621Z,14.00
2018-07-15T14:04:20.222Z,18.60
2018-07-15T14:06:48.516Z,15.68
2018-07-15T14:09:19.441Z,17.40
2018-07-15T14:11:47.856Z,15.53
2018-07-15T14:14:16.117Z,12.80
2018-07-15T14:16:44.459Z,15.18
2018-07-15T14:19:13.048Z,17.25
2018-07-15T14:21:41.350Z,23.40
2018-07-15T14:24:09.664Z,12.10
2018-07-15T14:26:38.295Z,13.78
2018-07-15T14:29:06.658Z,13.88
2018-07-15T14:31:35.127Z,18.98
2018-07-15T14:34:03.667Z,14.35
2018-07-15T14:36:31.979Z,15.35
2018-07-15T14:39:00.372Z,14.65
2018-07-15T14:41:28.946Z,13.65
2018-07-15T14:43:57.251Z,15.18
2018-07-15T14:46:25.568Z,15.05
2018-07-15T14:48:54.643Z,11.48
2018-07-15T14:51:22.907Z,10.28
2018-07-15T14:53:51.336Z,11.30
2018-07-15T14:56:19.730Z,12.03
2018-07-15T14:58:48.228Z,11.85
2018-07-15T15:01:16.637Z,9.73
2018-07-15T15:03:45.231Z,11.97
2018-07-15T15:06:13.654Z,10.48
2018-07-15T15:08:43.722Z,11.08
2018-07-15T15:11:12.799Z,11.28
2018-07-15T15:13:41.383Z,13.40
2018-07-15T15:16:09.998Z,10.82
2018-07-15T15:18:38.488Z,8.48
2018-07-15T15:21:07.003Z,6.08
2018-07-15T15:23:35.465Z,7.05
2018-07-15T15:26:03.759Z,8.33
2018-07-15T15:28:32.115Z,8.08
2018-07-15T15:31:01.366Z,9.80
2018-07-15T15:33:29.739Z,8.30
2018-07-15T15:35:58.083Z,16.10
2018-07-15T15:38:26.687Z,35.35
2018-07-15T15:40:54.954Z,15.90
2018-07-15T15:43:23.255Z,17.02
2018-07-15T15:45:52.064Z,15.72
2018-07-15T15:48:20.347Z,18.90
2018-07-15T15:50:48.762Z,10.05
2018-07-15T15:53:18.146Z,11.70
2018-07-15T15:55:46.434Z,9.30
2018-07-15T15:58:14.944Z,11.20
2018-07-15T16:00:43.194Z,12.33
2018-07-15T16:03:11.572Z,13.35
2018-07-15T16:05:40.331Z,13.20
2018-07-15T16:08:10.438Z,10.53
2018-07-15T16:10:38.762Z,9.00
2018-07-15T16:13:07.729Z,12.45
2018-07-15T16:15:36.501Z,10.23
2018-07-15T16:18:04.883Z,19.92
2018-07-15T16:20:33.471Z,14.25
2018-07-15T16:23:01.771Z,13.43
2018-07-15T16:25:30.120Z,11.48
2018-07-15T16:27:59.524Z,15.30
2018-07-15T16:30:28.099Z,9.63
2018-07-15T16:32:56.339Z,9.50
2018-07-15T16:35:25.064Z,6.90
2018-07-15T16:37:53.708Z,10.13
2018-07-15T16:40:22.075Z,6.50
2018-07-15T16:42:51.036Z,10.78
2018-07-15T16:45:19.379Z,23.22
2018-07-15T16:47:47.696Z,14.23
2018-07-15T16:50:16.255Z,26.27
2018-07-15T16:52:44.659Z,22.13
2018-07-15T16:55:13.024Z,18.45
2018-07-15T16:57:41.484Z,21.45
2018-07-15T17:00:09.774Z,15.72
2018-07-15T17:02:38.138Z,11.48
2018-07-15T17:05:06.874Z,9.58
2018-07-15T17:07:37.398Z,6.85
2018-07-15T17:10:05.818Z,6.33
2018-07-15T17:12:34.263Z,6.33
2018-07-15T17:15:02.846Z,7.45
2018-07-15T17:17:31.221Z,8.83
2018-07-15T17:19:59.955Z,5.95
2018-07-15T17:22:28.275Z,8.90
2018-07-15T17:24:56.721Z,3.98
2018-07-15T17:27:26.264Z,6.15
2018-07-15T17:29:54.566Z,3.72
2018-07-15T17:32:22.907Z,4.33
2018-07-15T17:34:51.283Z,4.35
2018-07-15T17:37:19.659Z,3.37
2018-07-15T17:39:47.936Z,3.22
2018-07-15T17:42:16.340Z,4.67
2018-07-15T17:44:44.695Z,3.55
2018-07-15T17:47:13.226Z,6.25
2018-07-15T17:49:41.884Z,4.70
2018-07-15T17:52:10.222Z,2.87
2018-07-15T17:54:41.961Z,4.30
2018-07-15T17:57:10.324Z,2.67
2018-07-15T17:59:38.666Z,4.33
2018-07-15T18:02:06.950Z,3.17
2018-07-15T18:04:35.369Z,6.50
2018-07-15T18:07:03.568Z,2.55
2018-07-15T18:09:33.631Z,3.47
2018-07-15T18:12:02.026Z,4.17
2018-07-15T18:14:30.406Z,2.58
2018-07-15T18:16:59.100Z,4.70
2018-07-15T18:19:27.724Z,6.25
2018-07-15T18:21:57.104Z,4.03
2018-07-15T18:24:25.609Z,5.22
2018-07-15T18:26:55.424Z,6.40
2018-07-15T18:29:23.729Z,5.37
2018-07-15T18:31:52.185Z,3.95
2018-07-15T18:34:20.552Z,7.75
2018-07-15T18:36:48.991Z,4.37
2018-07-15T18:39:17.518Z,3.10
2018-07-15T18:41:45.924Z,4.45
2018-07-15T18:44:14.566Z,4.15
2018-07-15T18:46:44.653Z,3.37
2018-07-15T18:49:13.152Z,4.17
2018-07-15T18:51:41.742Z,4.20
2018-07-15T18:54:10.434Z,2.87
2018-07-15T18:56:38.899Z,2.33
2018-07-15T18:59:07.423Z,3.58
2018-07-15T19:01:35.826Z,4.55
2018-07-15T19:04:04.218Z,7.55
2018-07-15T19:06:32.700Z,5.83
2018-07-15T19:09:03.035Z,4.35
2018-07-15T19:11:31.466Z,3.35
2018-07-15T19:13:59.917Z,6.65
2018-07-15T19:16:28.466Z,3.87
2018-07-15T19:18:57.284Z,5.83
2018-07-15T19:21:25.747Z,3.95
2018-07-15T19:23:55.512Z,2.00
2018-07-15T19:26:25.618Z,3.40
2018-07-15T19:28:53.778Z,4.15
2018-07-15T19:31:22.530Z,4.05
2018-07-15T19:33:51.125Z,5.08
2018-07-15T19:36:19.611Z,3.92
2018-07-15T19:38:48.298Z,2.55
2018-07-15T19:41:16.700Z,3.72
2018-07-15T19:43:45.171Z,5.25
2018-07-15T19:46:14.358Z,2.45
2018-07-15T19:48:42.731Z,5.35
2018-07-15T19:51:11.156Z,3.15
2018-07-15T19:53:39.602Z,5.65
2018-07-15T19:56:07.989Z,4.83
2018-07-15T19:58:36.463Z,4.85
2018-07-15T20:01:05.109Z,4.47
2018-07-15T20:03:33.474Z,3.65
2018-07-15T20:06:02.070Z,2.70
2018-07-15T20:08:32.694Z,3.47
2018-07-15T20:11:01.190Z,1.95
2018-07-15T20:13:29.538Z,2.87
2018-07-15T20:15:57.984Z,1.92
2018-07-15T20:18:26.324Z,2.40
2018-07-15T20:20:54.864Z,2.02
2018-07-15T20:23:23.271Z,3.05
2018-07-15T20:25:51.691Z,1.87
2018-07-15T20:28:20.074Z,2.62
2018-07-15T20:30:48.759Z,2.27
2018-07-15T20:33:17.137Z,4.92
2018-07-15T20:35:45.451Z,2.83
2018-07-15T20:38:13.999Z,3.77
2018-07-15T20:40:42.424Z,1.67
2018-07-15T20:43:10.576Z,3.77
2018-07-15T20:45:39.299Z,3.08
2018-07-15T20:48:07.582Z,2.25
2018-07-15T20:50:36.006Z,2.55
2018-07-15T20:53:04.912Z,1.55
2018-07-15T20:55:33.227Z,3.45
2018-07-15T20:58:01.577Z,1.80
2018-07-15T21:00:30.007Z,2.37
2018-07-15T21:02:58.680Z,1.77
2018-07-15T21:05:27.034Z,1.82
2018-07-15T21:07:57.207Z,2.52
2018-07-15T21:10:30.739Z,1.27
2018-07-15T21:12:59.118Z,1.75
2018-07-15T21:15:27.440Z,2.27
2018-07-15T21:17:55.799Z,3.58
2018-07-15T21:20:24.518Z,1.72
2018-07-15T21:22:52.937Z,2.95
2018-07-15T21:25:21.320Z,2.17
2018-07-15T21:27:50.795Z,1.37
2018-07-15T21:30:19.047Z,1.35
2018-07-15T21:32:47.413Z,1.95
2018-07-15T21:35:16.250Z,2.62
2018-07-15T21:37:44.756Z,1.72
2018-07-15T21:40:13.107Z,1.70
2018-07-15T21:42:41.787Z,1.60
2018-07-15T21:45:10.089Z,1.50
2018-07-15T21:47:38.398Z,1.70
2018-07-15T21:50:07.264Z,1.42
2018-07-15T21:52:35.767Z,1.47
2018-07-15T21:55:04.064Z,2.30
2018-07-15T21:57:32.685Z,3.02
2018-07-15T22:00:00.959Z,1.98
2018-07-15T22:02:29.381Z,1.40
2018-07-15T22:04:58.966Z,1.77
2018-07-15T22:07:41.462Z,1.40
2018-07-15T22:10:17.616Z,1.90
2018-07-15T22:12:45.955Z,1.50
2018-07-15T22:15:14.452Z,1.60
2018-07-15T22:17:42.895Z,2.05
2018-07-15T22:20:11.304Z,2.50
2018-07-15T22:22:39.713Z,1.70
2018-07-15T22:25:08.291Z,1.87
2018-07-15T22:27:36.799Z,1.70
2018-07-15T22:30:05.084Z,1.35
2018-07-15T22:32:33.642Z,1.65
2018-07-15T22:35:01.906Z,1.40
2018-07-15T22:37:30.171Z,1.98
2018-07-15T22:39:58.457Z,1.75
2018-07-15T22:42:26.858Z,1.32
2018-07-15T22:44:55.176Z,1.50
2018-07-15T22:47:23.525Z,1.30
2018-07-15T22:49:51.883Z,1.72
2018-07-15T22:52:20.166Z,1.50
2018-07-15T22:54:48.767Z,1.70
2018-07-15T22:57:17.026Z,1.30
2018-07-15T22:59:45.473Z,1.47
2018-07-15T23:02:14.912Z,1.57
2018-07-15T23:05:56.237Z,1.65
2018-07-15T23:08:26.941Z,1.62
2018-07-15T23:10:55.206Z,1.40
2018-07-15T23:13:23.482Z,1.90
2018-07-15T23:15:52.187Z,1.52
2018-07-15T23:18:20.595Z,1.50
2018-07-15T23:20:49.618Z,1.32
2018-07-15T23:23:18.207Z,1.80
2018-07-15T23:25:46.434Z,1.60
2018-07-15T23:28:15.661Z,1.67
2018-07-15T23:30:44.502Z,1.95
2018-07-15T23:33:13.219Z,1.30
2018-07-15T23:35:41.334Z,1.50
2018-07-15T23:38:10.149Z,1.65
2018-07-15T23:40:38.594Z,1.22
2018-07-15T23:43:06.963Z,1.35
2018-07-15T23:45:36.109Z,1.40
2018-07-15T23:48:04.479Z,1.50
2018-07-15T23:50:32.746Z,1.55
2018-07-15T23:53:01.552Z,1.22
2018-07-15T23:55:29.978Z,1.42
2018-07-15T23:57:58.299Z,1.47
